sensor_id;sensor_type;location;lat;lon;timestamp;pressure;altitude;pressure_sealevel;temperature
77728;BMP280;68312;53.502;10.030;2023-03-16T00:01:19;102271.41;;;-1.48
77728;BMP280;68312;53.502;10.030;2023-03-16T00:03:46;102271.81;;;-1.51
77728;BMP280;68312;53.502;10.030;2023-03-16T00:06:11;102280.91;;;-1.55
77728;BMP280;68312;53.502;10.030;2023-03-16T00:08:37;102285.84;;;-1.60
77728;BMP280;68312;53.502;10.030;2023-03-16T00:11:03;102288.78;;;-1.63
77728;BMP280;68312;53.502;10.030;2023-03-16T00:13:29;102287.97;;;-1.63
77728;BMP280;68312;53.502;10.030;2023-03-16T00:16:01;102285.41;;;-1.63
77728;BMP280;68312;53.502;10.030;2023-03-16T00:18:32;102295.53;;;-1.62
77728;BMP280;68312;53.502;10.030;2023-03-16T00:21:05;102291.94;;;-1.61
77728;BMP280;68312;53.502;10.030;2023-03-16T00:23:31;102294.34;;;-1.59
77728;BMP280;68312;53.502;10.030;2023-03-16T00:26:02;102287.22;;;-1.57
77728;BMP280;68312;53.502;10.030;2023-03-16T00:28:33;102299.13;;;-1.56
77728;BMP280;68312;53.502;10.030;2023-03-16T00:31:04;102300.88;;;-1.57
77728;BMP280;68312;53.502;10.030;2023-03-16T00:33:40;102301.31;;;-1.53
77728;BMP280;68312;53.502;10.030;2023-03-16T00:36:07;102300.13;;;-1.51
77728;BMP280;68312;53.502;10.030;2023-03-16T00:38:37;102298.91;;;-1.55
77728;BMP280;68312;53.502;10.030;2023-03-16T00:41:12;102294.16;;;-1.58
77728;BMP280;68312;53.502;10.030;2023-03-16T00:43:40;102295.34;;;-1.60
77728;BMP280;68312;53.502;10.030;2023-03-16T00:46:14;102299.50;;;-1.59
77728;BMP280;68312;53.502;10.030;2023-03-16T00:48:43;102293.13;;;-1.63
77728;BMP280;68312;53.502;10.030;2023-03-16T00:51:13;102296.09;;;-1.66
77728;BMP280;68312;53.502;10.030;2023-03-16T00:53:42;102291.91;;;-1.67
77728;BMP280;68312;53.502;10.030;2023-03-16T00:56:10;102288.34;;;-1.73
77728;BMP280;68312;53.502;10.030;2023-03-16T00:58:41;102285.16;;;-1.75
77728;BMP280;68312;53.502;10.030;2023-03-16T01:01:11;102292.28;;;-1.76
77728;BMP280;68312;53.502;10.030;2023-03-16T01:03:44;102287.72;;;-1.75
77728;BMP280;68312;53.502;10.030;2023-03-16T01:06:13;102280.63;;;-1.73
77728;BMP280;68312;53.502;10.030;2023-03-16T01:08:42;102279.84;;;-1.73
77728;BMP280;68312;53.502;10.030;2023-03-16T01:11:11;102282.41;;;-1.73
77728;BMP280;68312;53.502;10.030;2023-03-16T01:13:41;102284.75;;;-1.72
77728;BMP280;68312;53.502;10.030;2023-03-16T01:16:09;102283.19;;;-1.73
77728;BMP280;68312;53.502;10.030;2023-03-16T01:18:35;102275.03;;;-1.76
77728;BMP280;68312;53.502;10.030;2023-03-16T01:21:01;102272.66;;;-1.77
77728;BMP280;68312;53.502;10.030;2023-03-16T01:23:30;102276.03;;;-1.77
77728;BMP280;68312;53.502;10.030;2023-03-16T01:25:56;102279.22;;;-1.75
77728;BMP280;68312;53.502;10.030;2023-03-16T01:28:24;102268.91;;;-1.75
77728;BMP280;68312;53.502;10.030;2023-03-16T01:30:53;102276.44;;;-1.74
77728;BMP280;68312;53.502;10.030;2023-03-16T01:33:26;102265.34;;;-1.74
77728;BMP280;68312;53.502;10.030;2023-03-16T01:36:05;102269.72;;;-1.75
77728;BMP280;68312;53.502;10.030;2023-03-16T01:38:36;102268.50;;;-1.78
77728;BMP280;68312;53.502;10.030;2023-03-16T01:41:02;102265.69;;;-1.83
77728;BMP280;68312;53.502;10.030;2023-03-16T01:43:30;102263.06;;;-1.90
77728;BMP280;68312;53.502;10.030;2023-03-16T01:48:32;102280.22;;;-1.97
77728;BMP280;68312;53.502;10.030;2023-03-16T01:51:37;102276.47;;;-2.01
77728;BMP280;68312;53.502;10.030;2023-03-16T01:54:38;102275.03;;;-2.03
77728;BMP280;68312;53.502;10.030;2023-03-16T01:57:14;102279.03;;;-2.01
77728;BMP280;68312;53.502;10.030;2023-03-16T02:00:03;102274.69;;;-2.00
77728;BMP280;68312;53.502;10.030;2023-03-16T02:02:37;102273.09;;;-1.95
77728;BMP280;68312;53.502;10.030;2023-03-16T02:05:14;102275.50;;;-1.93
77728;BMP280;68312;53.502;10.030;2023-03-16T02:08:22;102273.72;;;-1.93
77728;BMP280;68312;53.502;10.030;2023-03-16T02:10:48;102267.19;;;-1.95
77728;BMP280;68312;53.502;10.030;2023-03-16T02:13:19;102259.22;;;-2.00
77728;BMP280;68312;53.502;10.030;2023-03-16T02:15:47;102258.44;;;-2.01
77728;BMP280;68312;53.502;10.030;2023-03-16T02:18:13;102259.81;;;-2.05
77728;BMP280;68312;53.502;10.030;2023-03-16T02:20:46;102261.16;;;-2.09
77728;BMP280;68312;53.502;10.030;2023-03-16T02:23:30;102250.25;;;-2.11
77728;BMP280;68312;53.502;10.030;2023-03-16T02:26:10;102259.94;;;-2.12
77728;BMP280;68312;53.502;10.030;2023-03-16T02:29:11;102254.19;;;-2.14
77728;BMP280;68312;53.502;10.030;2023-03-16T02:32:00;102257.97;;;-2.11
77728;BMP280;68312;53.502;10.030;2023-03-16T02:34:30;102254.78;;;-2.12
77728;BMP280;68312;53.502;10.030;2023-03-16T02:36:57;102247.06;;;-2.12
77728;BMP280;68312;53.502;10.030;2023-03-16T02:39:24;102248.28;;;-2.09
77728;BMP280;68312;53.502;10.030;2023-03-16T02:41:51;102251.09;;;-2.04
77728;BMP280;68312;53.502;10.030;2023-03-16T02:44:20;102257.84;;;-2.03
77728;BMP280;68312;53.502;10.030;2023-03-16T02:46:57;102254.69;;;-1.98
77728;BMP280;68312;53.502;10.030;2023-03-16T02:49:39;102251.16;;;-1.91
77728;BMP280;68312;53.502;10.030;2023-03-16T02:52:09;102246.41;;;-1.94
77728;BMP280;68312;53.502;10.030;2023-03-16T02:54:35;102250.34;;;-1.98
77728;BMP280;68312;53.502;10.030;2023-03-16T02:57:02;102253.91;;;-1.92
77728;BMP280;68312;53.502;10.030;2023-03-16T02:59:29;102250.81;;;-1.88
77728;BMP280;68312;53.502;10.030;2023-03-16T03:01:55;102255.56;;;-1.85
77728;BMP280;68312;53.502;10.030;2023-03-16T03:04:21;102245.88;;;-1.83
77728;BMP280;68312;53.502;10.030;2023-03-16T03:06:49;102252.81;;;-1.83
77728;BMP280;68312;53.502;10.030;2023-03-16T03:09:15;102249.69;;;-1.79
77728;BMP280;68312;53.502;10.030;2023-03-16T03:11:42;102253.25;;;-1.74
77728;BMP280;68312;53.502;10.030;2023-03-16T03:14:10;102261.41;;;-1.70
77728;BMP280;68312;53.502;10.030;2023-03-16T03:16:37;102268.75;;;-1.67
77728;BMP280;68312;53.502;10.030;2023-03-16T03:19:02;102270.72;;;-1.69
77728;BMP280;68312;53.502;10.030;2023-03-16T03:21:28;102268.91;;;-1.75
77728;BMP280;68312;53.502;10.030;2023-03-16T03:23:54;102269.81;;;-1.82
77728;BMP280;68312;53.502;10.030;2023-03-16T03:26:20;102263.84;;;-1.89
77728;BMP280;68312;53.502;10.030;2023-03-16T03:28:45;102262.81;;;-1.95
77728;BMP280;68312;53.502;10.030;2023-03-16T03:31:20;102253.88;;;-1.99
77728;BMP280;68312;53.502;10.030;2023-03-16T03:33:46;102242.41;;;-2.03
77728;BMP280;68312;53.502;10.030;2023-03-16T03:36:13;102253.22;;;-2.07
77728;BMP280;68312;53.502;10.030;2023-03-16T03:38:39;102256.97;;;-2.10
77728;BMP280;68312;53.502;10.030;2023-03-16T03:41:05;102260.72;;;-2.12
77728;BMP280;68312;53.502;10.030;2023-03-16T03:43:32;102259.75;;;-2.11
77728;BMP280;68312;53.502;10.030;2023-03-16T03:45:59;102250.66;;;-2.07
77728;BMP280;68312;53.502;10.030;2023-03-16T03:48:27;102258.44;;;-2.01
77728;BMP280;68312;53.502;10.030;2023-03-16T03:50:53;102267.53;;;-2.05
77728;BMP280;68312;53.502;10.030;2023-03-16T03:53:19;102266.91;;;-2.07
77728;BMP280;68312;53.502;10.030;2023-03-16T03:55:45;102264.69;;;-2.10
77728;BMP280;68312;53.502;10.030;2023-03-16T03:58:13;102266.31;;;-2.09
77728;BMP280;68312;53.502;10.030;2023-03-16T04:00:38;102267.09;;;-2.08
77728;BMP280;68312;53.502;10.030;2023-03-16T04:03:04;102253.22;;;-2.07
77728;BMP280;68312;53.502;10.030;2023-03-16T04:05:30;102263.38;;;-1.99
77728;BMP280;68312;53.502;10.030;2023-03-16T04:07:56;102261.06;;;-1.94
77728;BMP280;68312;53.502;10.030;2023-03-16T04:10:27;102259.88;;;-1.92
77728;BMP280;68312;53.502;10.030;2023-03-16T04:12:56;102256.91;;;-1.89
77728;BMP280;68312;53.502;10.030;2023-03-16T04:15:22;102255.34;;;-1.90
77728;BMP280;68312;53.502;10.030;2023-03-16T04:17:49;102262.81;;;-1.95
77728;BMP280;68312;53.502;10.030;2023-03-16T04:20:17;102257.44;;;-2.00
77728;BMP280;68312;53.502;10.030;2023-03-16T04:22:47;102253.09;;;-1.99
77728;BMP280;68312;53.502;10.030;2023-03-16T04:25:16;102247.97;;;-1.93
77728;BMP280;68312;53.502;10.030;2023-03-16T04:27:42;102252.00;;;-1.84
77728;BMP280;68312;53.502;10.030;2023-03-16T04:30:12;102246.91;;;-1.77
77728;BMP280;68312;53.502;10.030;2023-03-16T04:32:39;102242.78;;;-1.72
77728;BMP280;68312;53.502;10.030;2023-03-16T04:35:05;102250.72;;;-1.67
77728;BMP280;68312;53.502;10.030;2023-03-16T04:37:32;102248.75;;;-1.65
77728;BMP280;68312;53.502;10.030;2023-03-16T04:39:59;102249.34;;;-1.63
77728;BMP280;68312;53.502;10.030;2023-03-16T04:42:28;102248.53;;;-1.70
77728;BMP280;68312;53.502;10.030;2023-03-16T04:44:54;102255.06;;;-1.74
77728;BMP280;68312;53.502;10.030;2023-03-16T04:47:20;102254.56;;;-1.84
77728;BMP280;68312;53.502;10.030;2023-03-16T04:49:47;102254.34;;;-1.89
77728;BMP280;68312;53.502;10.030;2023-03-16T04:52:12;102241.25;;;-1.94
77728;BMP280;68312;53.502;10.030;2023-03-16T04:54:38;102246.19;;;-1.92
77728;BMP280;68312;53.502;10.030;2023-03-16T04:57:03;102245.66;;;-1.88
77728;BMP280;68312;53.502;10.030;2023-03-16T04:59:29;102247.22;;;-1.87
77728;BMP280;68312;53.502;10.030;2023-03-16T05:01:55;102238.94;;;-1.82
77728;BMP280;68312;53.502;10.030;2023-03-16T05:04:21;102247.13;;;-1.79
77728;BMP280;68312;53.502;10.030;2023-03-16T05:06:48;102244.56;;;-1.73
77728;BMP280;68312;53.502;10.030;2023-03-16T05:09:14;102239.41;;;-1.73
77728;BMP280;68312;53.502;10.030;2023-03-16T05:11:40;102235.28;;;-1.67
77728;BMP280;68312;53.502;10.030;2023-03-16T05:14:05;102233.28;;;-1.65
77728;BMP280;68312;53.502;10.030;2023-03-16T05:16:31;102236.72;;;-1.58
77728;BMP280;68312;53.502;10.030;2023-03-16T05:19:00;102233.94;;;-1.57
77728;BMP280;68312;53.502;10.030;2023-03-16T05:21:26;102238.69;;;-1.60
77728;BMP280;68312;53.502;10.030;2023-03-16T05:23:56;102245.00;;;-1.63
77728;BMP280;68312;53.502;10.030;2023-03-16T05:26:22;102240.63;;;-1.69
77728;BMP280;68312;53.502;10.030;2023-03-16T05:28:49;102248.97;;;-1.67
77728;BMP280;68312;53.502;10.030;2023-03-16T05:31:16;102242.38;;;-1.69
77728;BMP280;68312;53.502;10.030;2023-03-16T05:33:43;102231.53;;;-1.65
77728;BMP280;68312;53.502;10.030;2023-03-16T05:36:09;102241.88;;;-1.58
77728;BMP280;68312;53.502;10.030;2023-03-16T05:38:35;102233.34;;;-1.52
77728;BMP280;68312;53.502;10.030;2023-03-16T05:41:03;102240.72;;;-1.49
77728;BMP280;68312;53.502;10.030;2023-03-16T05:43:29;102251.22;;;-1.44
77728;BMP280;68312;53.502;10.030;2023-03-16T05:45:56;102256.41;;;-1.38
77728;BMP280;68312;53.502;10.030;2023-03-16T05:48:22;102261.38;;;-1.30
77728;BMP280;68312;53.502;10.030;2023-03-16T05:50:51;102253.72;;;-1.24
77728;BMP280;68312;53.502;10.030;2023-03-16T05:53:18;102272.38;;;-1.15
77728;BMP280;68312;53.502;10.030;2023-03-16T05:55:50;102268.41;;;-1.11
77728;BMP280;68312;53.502;10.030;2023-03-16T05:58:19;102259.69;;;-1.04
77728;BMP280;68312;53.502;10.030;2023-03-16T06:00:45;102265.09;;;-0.99
77728;BMP280;68312;53.502;10.030;2023-03-16T06:03:11;102261.50;;;-0.92
77728;BMP280;68312;53.502;10.030;2023-03-16T06:05:37;102265.13;;;-0.86
77728;BMP280;68312;53.502;10.030;2023-03-16T06:08:02;102264.72;;;-0.83
77728;BMP280;68312;53.502;10.030;2023-03-16T06:10:28;102269.47;;;-0.74
77728;BMP280;68312;53.502;10.030;2023-03-16T06:12:54;102259.19;;;-0.68
77728;BMP280;68312;53.502;10.030;2023-03-16T06:15:21;102255.41;;;-0.59
77728;BMP280;68312;53.502;10.030;2023-03-16T06:17:49;102257.59;;;-0.49
77728;BMP280;68312;53.502;10.030;2023-03-16T06:20:15;102264.72;;;-0.38
77728;BMP280;68312;53.502;10.030;2023-03-16T06:22:42;102254.41;;;-0.32
77728;BMP280;68312;53.502;10.030;2023-03-16T06:25:10;102250.09;;;-0.25
77728;BMP280;68312;53.502;10.030;2023-03-16T06:27:37;102259.22;;;-0.16
77728;BMP280;68312;53.502;10.030;2023-03-16T06:30:05;102248.09;;;-0.10
77728;BMP280;68312;53.502;10.030;2023-03-16T06:32:33;102271.50;;;0.01
77728;BMP280;68312;53.502;10.030;2023-03-16T06:35:00;102267.09;;;0.08
77728;BMP280;68312;53.502;10.030;2023-03-16T06:37:28;102271.47;;;0.14
77728;BMP280;68312;53.502;10.030;2023-03-16T06:39:55;102274.63;;;0.22
77728;BMP280;68312;53.502;10.030;2023-03-16T06:42:21;102277.19;;;0.29
77728;BMP280;68312;53.502;10.030;2023-03-16T06:44:46;102277.56;;;0.32
77728;BMP280;68312;53.502;10.030;2023-03-16T06:47:12;102277.31;;;0.40
77728;BMP280;68312;53.502;10.030;2023-03-16T06:49:39;102275.91;;;0.44
77728;BMP280;68312;53.502;10.030;2023-03-16T06:52:04;102289.03;;;0.49
77728;BMP280;68312;53.502;10.030;2023-03-16T06:54:31;102282.84;;;0.50
77728;BMP280;68312;53.502;10.030;2023-03-16T06:56:59;102276.69;;;0.51
77728;BMP280;68312;53.502;10.030;2023-03-16T06:59:25;102284.03;;;0.54
77728;BMP280;68312;53.502;10.030;2023-03-16T07:01:51;102294.19;;;0.55
77728;BMP280;68312;53.502;10.030;2023-03-16T07:04:16;102289.59;;;0.57
77728;BMP280;68312;53.502;10.030;2023-03-16T07:06:42;102272.88;;;0.60
77728;BMP280;68312;53.502;10.030;2023-03-16T07:09:07;102279.81;;;0.66
77728;BMP280;68312;53.502;10.030;2023-03-16T07:11:33;102280.00;;;0.70
77728;BMP280;68312;53.502;10.030;2023-03-16T07:14:00;102286.72;;;0.78
77728;BMP280;68312;53.502;10.030;2023-03-16T07:16:27;102285.66;;;0.92
77728;BMP280;68312;53.502;10.030;2023-03-16T07:18:53;102287.38;;;1.04
77728;BMP280;68312;53.502;10.030;2023-03-16T07:21:18;102291.66;;;1.23
77728;BMP280;68312;53.502;10.030;2023-03-16T07:23:46;102281.59;;;1.33
77728;BMP280;68312;53.502;10.030;2023-03-16T07:26:12;102288.47;;;1.45
77728;BMP280;68312;53.502;10.030;2023-03-16T07:28:38;102280.22;;;1.61
77728;BMP280;68312;53.502;10.030;2023-03-16T07:31:04;102284.13;;;1.69
77728;BMP280;68312;53.502;10.030;2023-03-16T07:33:32;102287.06;;;1.91
77728;BMP280;68312;53.502;10.030;2023-03-16T07:35:59;102295.00;;;1.96
77728;BMP280;68312;53.502;10.030;2023-03-16T07:38:28;102286.69;;;2.11
77728;BMP280;68312;53.502;10.030;2023-03-16T07:40:56;102281.34;;;2.24
77728;BMP280;68312;53.502;10.030;2023-03-16T07:43:25;102283.22;;;2.35
77728;BMP280;68312;53.502;10.030;2023-03-16T07:45:52;102279.59;;;2.36
77728;BMP280;68312;53.502;10.030;2023-03-16T07:48:18;102286.22;;;2.50
77728;BMP280;68312;53.502;10.030;2023-03-16T07:50:48;102287.63;;;2.64
77728;BMP280;68312;53.502;10.030;2023-03-16T07:53:15;102282.91;;;2.72
77728;BMP280;68312;53.502;10.030;2023-03-16T07:55:41;102279.50;;;2.89
77728;BMP280;68312;53.502;10.030;2023-03-16T07:58:09;102282.63;;;3.09
77728;BMP280;68312;53.502;10.030;2023-03-16T08:00:36;102280.06;;;3.32
77728;BMP280;68312;53.502;10.030;2023-03-16T08:03:03;102283.69;;;3.53
77728;BMP280;68312;53.502;10.030;2023-03-16T08:05:29;102286.50;;;3.63
77728;BMP280;68312;53.502;10.030;2023-03-16T08:07:57;102279.59;;;3.68
77728;BMP280;68312;53.502;10.030;2023-03-16T08:10:23;102286.97;;;3.83
77728;BMP280;68312;53.502;10.030;2023-03-16T08:12:49;102278.56;;;3.92
77728;BMP280;68312;53.502;10.030;2023-03-16T08:15:16;102287.84;;;3.99
77728;BMP280;68312;53.502;10.030;2023-03-16T08:17:42;102286.25;;;3.87
77728;BMP280;68312;53.502;10.030;2023-03-16T08:20:09;102284.09;;;3.96
77728;BMP280;68312;53.502;10.030;2023-03-16T08:22:38;102285.88;;;4.06
77728;BMP280;68312;53.502;10.030;2023-03-16T08:25:11;102290.25;;;4.17
77728;BMP280;68312;53.502;10.030;2023-03-16T08:27:38;102270.97;;;4.41
77728;BMP280;68312;53.502;10.030;2023-03-16T08:30:07;102271.75;;;4.69
77728;BMP280;68312;53.502;10.030;2023-03-16T08:32:36;102262.47;;;4.89
77728;BMP280;68312;53.502;10.030;2023-03-16T08:35:05;102268.31;;;5.28
77728;BMP280;68312;53.502;10.030;2023-03-16T08:37:34;102257.06;;;5.82
77728;BMP280;68312;53.502;10.030;2023-03-16T08:40:00;102263.69;;;6.36
77728;BMP280;68312;53.502;10.030;2023-03-16T08:42:27;102260.63;;;7.06
77728;BMP280;68312;53.502;10.030;2023-03-16T08:44:54;102257.72;;;8.09
77728;BMP280;68312;53.502;10.030;2023-03-16T08:47:23;102242.28;;;9.06
77728;BMP280;68312;53.502;10.030;2023-03-16T08:49:49;102244.22;;;9.53
77728;BMP280;68312;53.502;10.030;2023-03-16T08:52:16;102240.06;;;10.00
77728;BMP280;68312;53.502;10.030;2023-03-16T08:54:42;102248.81;;;10.23
77728;BMP280;68312;53.502;10.030;2023-03-16T08:57:08;102236.47;;;9.86
77728;BMP280;68312;53.502;10.030;2023-03-16T08:59:35;102231.66;;;9.50
77728;BMP280;68312;53.502;10.030;2023-03-16T09:02:01;102224.94;;;9.25
77728;BMP280;68312;53.502;10.030;2023-03-16T09:04:34;102227.41;;;8.47
77728;BMP280;68312;53.502;10.030;2023-03-16T09:06:59;102229.50;;;8.40
77728;BMP280;68312;53.502;10.030;2023-03-16T09:09:26;102227.69;;;8.56
77728;BMP280;68312;53.502;10.030;2023-03-16T09:11:53;102214.31;;;8.67
77728;BMP280;68312;53.502;10.030;2023-03-16T09:14:18;102204.88;;;8.76
77728;BMP280;68312;53.502;10.030;2023-03-16T09:16:44;102206.91;;;8.98
77728;BMP280;68312;53.502;10.030;2023-03-16T09:19:10;102211.84;;;9.25
77728;BMP280;68312;53.502;10.030;2023-03-16T09:21:36;102200.50;;;9.34
77728;BMP280;68312;53.502;10.030;2023-03-16T09:24:02;102207.09;;;9.22
77728;BMP280;68312;53.502;10.030;2023-03-16T09:26:28;102198.94;;;9.33
77728;BMP280;68312;53.502;10.030;2023-03-16T09:28:54;102199.41;;;9.50
77728;BMP280;68312;53.502;10.030;2023-03-16T09:31:20;102203.34;;;9.90
77728;BMP280;68312;53.502;10.030;2023-03-16T09:33:46;102196.44;;;9.61
77728;BMP280;68312;53.502;10.030;2023-03-16T09:36:13;102198.72;;;9.77
77728;BMP280;68312;53.502;10.030;2023-03-16T09:38:40;102194.00;;;10.12
77728;BMP280;68312;53.502;10.030;2023-03-16T09:41:40;102185.31;;;10.73
77728;BMP280;68312;53.502;10.030;2023-03-16T09:44:33;102178.25;;;11.14
77728;BMP280;68312;53.502;10.030;2023-03-16T09:47:48;102180.19;;;11.63
77728;BMP280;68312;53.502;10.030;2023-03-16T09:50:28;102181.25;;;11.81
77728;BMP280;68312;53.502;10.030;2023-03-16T09:55:52;102180.06;;;12.36
77728;BMP280;68312;53.502;10.030;2023-03-16T09:58:26;102176.78;;;12.13
77728;BMP280;68312;53.502;10.030;2023-03-16T10:01:07;102162.28;;;12.10
77728;BMP280;68312;53.502;10.030;2023-03-16T10:07:14;102156.50;;;12.40
77728;BMP280;68312;53.502;10.030;2023-03-16T10:12:41;102156.38;;;12.31
77728;BMP280;68312;53.502;10.030;2023-03-16T10:15:17;102159.25;;;12.48
77728;BMP280;68312;53.502;10.030;2023-03-16T10:18:02;102147.16;;;12.60
77728;BMP280;68312;53.502;10.030;2023-03-16T10:20:39;102152.75;;;13.20
77728;BMP280;68312;53.502;10.030;2023-03-16T10:23:19;102147.47;;;13.20
77728;BMP280;68312;53.502;10.030;2023-03-16T10:25:54;102147.88;;;13.01
77728;BMP280;68312;53.502;10.030;2023-03-16T10:28:23;102143.25;;;12.45
77728;BMP280;68312;53.502;10.030;2023-03-16T10:30:54;102152.91;;;12.89
77728;BMP280;68312;53.502;10.030;2023-03-16T10:33:29;102134.63;;;12.92
77728;BMP280;68312;53.502;10.030;2023-03-16T10:36:32;102141.84;;;13.35
77728;BMP280;68312;53.502;10.030;2023-03-16T10:39:06;102141.38;;;12.85
77728;BMP280;68312;53.502;10.030;2023-03-16T10:41:42;102131.22;;;13.27
77728;BMP280;68312;53.502;10.030;2023-03-16T10:44:13;102134.06;;;12.82
77728;BMP280;68312;53.502;10.030;2023-03-16T10:46:57;102128.19;;;12.58
77728;BMP280;68312;53.502;10.030;2023-03-16T10:49:37;102120.41;;;12.40
77728;BMP280;68312;53.502;10.030;2023-03-16T10:54:57;102121.53;;;11.94
77728;BMP280;68312;53.502;10.030;2023-03-16T10:57:29;102123.28;;;12.12
77728;BMP280;68312;53.502;10.030;2023-03-16T11:02:41;102113.09;;;13.33
77728;BMP280;68312;53.502;10.030;2023-03-16T11:08:12;102101.88;;;14.01
77728;BMP280;68312;53.502;10.030;2023-03-16T11:10:57;102107.16;;;13.50
77728;BMP280;68312;53.502;10.030;2023-03-16T11:13:36;102077.13;;;13.16
77728;BMP280;68312;53.502;10.030;2023-03-16T11:16:23;102101.50;;;13.21
77728;BMP280;68312;53.502;10.030;2023-03-16T11:18:59;102090.78;;;13.61
77728;BMP280;68312;53.502;10.030;2023-03-16T11:21:55;102080.69;;;13.93
77728;BMP280;68312;53.502;10.030;2023-03-16T11:25:01;102071.16;;;13.32
77728;BMP280;68312;53.502;10.030;2023-03-16T11:27:45;102085.88;;;13.46
77728;BMP280;68312;53.502;10.030;2023-03-16T11:30:48;102068.88;;;13.31
77728;BMP280;68312;53.502;10.030;2023-03-16T11:33:36;102066.63;;;13.76
77728;BMP280;68312;53.502;10.030;2023-03-16T11:36:30;102079.47;;;13.90
77728;BMP280;68312;53.502;10.030;2023-03-16T11:42:47;102070.44;;;14.38
77728;BMP280;68312;53.502;10.030;2023-03-16T11:51:55;102047.66;;;13.44
77728;BMP280;68312;53.502;10.030;2023-03-16T11:57:57;102038.13;;;12.91
77728;BMP280;68312;53.502;10.030;2023-03-16T12:01:12;102034.59;;;12.47
77728;BMP280;68312;53.502;10.030;2023-03-16T12:04:10;102035.50;;;12.91
77728;BMP280;68312;53.502;10.030;2023-03-16T12:07:25;102029.56;;;13.07
77728;BMP280;68312;53.502;10.030;2023-03-16T12:10:29;102016.41;;;12.73
77728;BMP280;68312;53.502;10.030;2023-03-16T12:13:31;102025.31;;;12.50
77728;BMP280;68312;53.502;10.030;2023-03-16T12:16:47;102025.16;;;12.46
77728;BMP280;68312;53.502;10.030;2023-03-16T12:20:03;102028.41;;;13.00
77728;BMP280;68312;53.502;10.030;2023-03-16T12:22:45;102005.81;;;12.38
77728;BMP280;68312;53.502;10.030;2023-03-16T12:25:24;102013.84;;;12.33
77728;BMP280;68312;53.502;10.030;2023-03-16T12:27:59;102018.81;;;12.69
77728;BMP280;68312;53.502;10.030;2023-03-16T12:31:03;101996.69;;;13.35
77728;BMP280;68312;53.502;10.030;2023-03-16T12:36:58;101998.50;;;12.83
77728;BMP280;68312;53.502;10.030;2023-03-16T12:40:02;101985.50;;;13.38
77728;BMP280;68312;53.502;10.030;2023-03-16T12:43:05;101967.59;;;13.95
77728;BMP280;68312;53.502;10.030;2023-03-16T12:45:50;101971.31;;;14.02
77728;BMP280;68312;53.502;10.030;2023-03-16T12:48:37;101975.09;;;14.76
77728;BMP280;68312;53.502;10.030;2023-03-16T12:51:14;101956.84;;;15.53
77728;BMP280;68312;53.502;10.030;2023-03-16T12:53:54;101948.00;;;15.98
77728;BMP280;68312;53.502;10.030;2023-03-16T12:56:34;101947.44;;;14.74
77728;BMP280;68312;53.502;10.030;2023-03-16T12:59:18;101950.56;;;13.32
77728;BMP280;68312;53.502;10.030;2023-03-16T13:01:50;101958.53;;;13.19
77728;BMP280;68312;53.502;10.030;2023-03-16T13:04:32;101952.94;;;13.12
77728;BMP280;68312;53.502;10.030;2023-03-16T13:09:48;101952.53;;;12.97
77728;BMP280;68312;53.502;10.030;2023-03-16T13:12:26;101938.41;;;12.93
77728;BMP280;68312;53.502;10.030;2023-03-16T13:15:01;101925.38;;;12.97
77728;BMP280;68312;53.502;10.030;2023-03-16T13:17:42;101927.00;;;13.44
77728;BMP280;68312;53.502;10.030;2023-03-16T13:22:45;101920.78;;;12.80
77728;BMP280;68312;53.502;10.030;2023-03-16T13:27:53;101918.94;;;12.81
77728;BMP280;68312;53.502;10.030;2023-03-16T13:30:26;101921.41;;;12.64
77728;BMP280;68312;53.502;10.030;2023-03-16T13:33:00;101927.50;;;12.51
77728;BMP280;68312;53.502;10.030;2023-03-16T13:35:48;101913.31;;;12.39
77728;BMP280;68312;53.502;10.030;2023-03-16T13:38:20;101910.06;;;12.07
77728;BMP280;68312;53.502;10.030;2023-03-16T13:40:53;101904.91;;;11.62
77728;BMP280;68312;53.502;10.030;2023-03-16T13:43:27;101905.38;;;11.38
77728;BMP280;68312;53.502;10.030;2023-03-16T13:45:57;101897.50;;;11.06
77728;BMP280;68312;53.502;10.030;2023-03-16T13:48:23;101915.00;;;10.98
77728;BMP280;68312;53.502;10.030;2023-03-16T13:50:54;101908.34;;;10.73
77728;BMP280;68312;53.502;10.030;2023-03-16T13:53:24;101910.78;;;10.47
77728;BMP280;68312;53.502;10.030;2023-03-16T13:55:54;101903.22;;;10.27
77728;BMP280;68312;53.502;10.030;2023-03-16T14:01:10;101901.22;;;10.19
77728;BMP280;68312;53.502;10.030;2023-03-16T14:03:51;101896.13;;;10.05
77728;BMP280;68312;53.502;10.030;2023-03-16T14:06:26;101896.03;;;9.91
77728;BMP280;68312;53.502;10.030;2023-03-16T14:08:58;101888.94;;;9.92
77728;BMP280;68312;53.502;10.030;2023-03-16T14:11:28;101887.00;;;9.97
77728;BMP280;68312;53.502;10.030;2023-03-16T14:13:56;101892.69;;;9.86
77728;BMP280;68312;53.502;10.030;2023-03-16T14:16:26;101890.84;;;9.86
77728;BMP280;68312;53.502;10.030;2023-03-16T14:18:59;101889.03;;;9.82
77728;BMP280;68312;53.502;10.030;2023-03-16T14:21:29;101885.88;;;9.85
77728;BMP280;68312;53.502;10.030;2023-03-16T14:24:01;101882.19;;;9.86
77728;BMP280;68312;53.502;10.030;2023-03-16T14:26:41;101882.56;;;9.98
77728;BMP280;68312;53.502;10.030;2023-03-16T14:29:24;101878.97;;;9.89
77728;BMP280;68312;53.502;10.030;2023-03-16T14:31:55;101876.50;;;9.97
77728;BMP280;68312;53.502;10.030;2023-03-16T14:34:35;101866.19;;;10.06
77728;BMP280;68312;53.502;10.030;2023-03-16T14:37:12;101860.09;;;10.28
77728;BMP280;68312;53.502;10.030;2023-03-16T14:39:44;101844.41;;;10.42
77728;BMP280;68312;53.502;10.030;2023-03-16T14:42:29;101850.25;;;10.57
77728;BMP280;68312;53.502;10.030;2023-03-16T14:45:01;101838.84;;;10.79
77728;BMP280;68312;53.502;10.030;2023-03-16T14:47:37;101832.28;;;10.77
77728;BMP280;68312;53.502;10.030;2023-03-16T14:50:13;101832.66;;;11.02
77728;BMP280;68312;53.502;10.030;2023-03-16T14:52:46;101818.72;;;10.88
77728;BMP280;68312;53.502;10.030;2023-03-16T14:55:15;101817.44;;;10.86
77728;BMP280;68312;53.502;10.030;2023-03-16T14:57:44;101799.84;;;10.55
77728;BMP280;68312;53.502;10.030;2023-03-16T15:00:12;101810.53;;;10.58
77728;BMP280;68312;53.502;10.030;2023-03-16T15:02:43;101805.97;;;10.50